Envar — 3ESE3 — position and weather

sailwx.info

Track history (hours):
 
Tides and Currents Weather Stations Pressure Air Temp Water Temp Dewpoint Dewpoint Depression Visibility Wind Speed Wind Dir Waves Ship Positions

Envar

Last reported at 2018-Feb-13 00:50 UTC. Time now 2018-Feb-19 18:16 UTC.
Position N 45°31' E 036°46'.

Length 99 m; draft 3.4 m.

Type: Cargo ship. MMSI: 370274000.

Date/timePositionNaut miles runAvg speedWind from/ knotsBaromVisibWave heightAir tempDewpointWater temp
2018-Feb-13 00:50N 45°31' E 036°46'3 7.7
2018-Feb-13 00:30N 45°29' E 036°44'4 7.2
2018-Feb-12 23:59N 45°26' E 036°42'3 7.1
2018-Feb-12 23:30N 45°23' E 036°40'3 6.1
2018-Feb-12 23:00N 45°20' E 036°38'3 6.7
2018-Feb-12 22:30N 45°19' E 036°33'3 6.4
2018-Feb-12 22:00N 45°18' E 036°29'3 6.1
2018-Feb-12 21:30N 45°15' E 036°29'2 4.5
2018-Feb-12 21:00N 45°13' E 036°31'0 0.3
2018-Feb-12 20:23N 45°13' E 036°32'0 0.0
2018-Feb-12 19:53N 45°13' E 036°32'0 0.0
2018-Feb-12 19:23N 45°13' E 036°32'0 0.0
2018-Feb-12 18:53N 45°13' E 036°32'0 0.0
2018-Feb-12 18:29N 45°13' E 036°32'0 0.0
2018-Feb-12 17:53N 45°13' E 036°32'0 0.0
2018-Feb-12 17:29N 45°13' E 036°32'0 0.0
2018-Feb-12 16:59N 45°13' E 036°32'0 0.0
2018-Feb-12 16:29N 45°13' E 036°32'0 0.0
2018-Feb-12 15:11N 45°13' E 036°32'0 0.0
2018-Feb-12 14:59N 45°13' E 036°32'0 0.0
2018-Feb-12 14:29N 45°13' E 036°32'2 4.7
2018-Feb-12 14:00N 45°11' E 036°30'  
2018-Feb-06 14:22N 44°26' E 037°25'3 8.5
2018-Feb-06 13:58N 44°28' E 037°29'4 8.3
2018-Feb-06 13:30N 44°30' E 037°33'4 8.1
2018-Feb-06 12:59N 44°33' E 037°38'4 8.2
2018-Feb-06 12:30N 44°33' E 037°44'4 8.0
2018-Feb-06 12:00N 44°36' E 037°47'4 7.9
2018-Feb-06 11:30N 44°40' E 037°51'4 7.5
2018-Feb-06 11:00N 44°43' E 037°48'1 1.4
2018-Feb-06 10:29N 44°44' E 037°48'0 0.0
2018-Feb-06 09:59N 44°44' E 037°48'0 0.0
2018-Feb-06 09:26N 44°44' E 037°48'0 0.0
2018-Feb-06 08:59N 44°44' E 037°48'0 0.0
2018-Feb-06 08:29N 44°44' E 037°48'0 0.0
2018-Feb-06 07:59N 44°44' E 037°48'0 0.0
2018-Feb-06 07:29N 44°44' E 037°48'0 0.0
2018-Feb-06 06:59N 44°44' E 037°48'0 0.0
2018-Feb-06 06:29N 44°44' E 037°48'0 0.0
2018-Feb-06 05:56N 44°44' E 037°48'0 0.0
2018-Feb-06 05:29N 44°44' E 037°48'0 0.0
2018-Feb-06 04:56N 44°44' E 037°48'0 0.0
2018-Feb-06 04:29N 44°44' E 037°48'0 0.0
2018-Feb-06 03:59N 44°44' E 037°48'0 0.0
2018-Feb-06 03:29N 44°44' E 037°48'0 0.0
2018-Feb-06 02:59N 44°44' E 037°48'0 0.0
2018-Feb-06 02:29N 44°44' E 037°48'0 0.0
2018-Feb-06 01:59N 44°44' E 037°48'0 0.0
2018-Feb-06 01:26N 44°44' E 037°48'0 0.0
2018-Feb-06 00:59N 44°44' E 037°48'0 0.0
2018-Feb-06 00:29N 44°44' E 037°48'0 0.0
2018-Feb-05 23:59N 44°44' E 037°48'0 0.0
2018-Feb-05 23:29N 44°44' E 037°48'0 0.0
2018-Feb-05 22:59N 44°44' E 037°48'0 0.0
2018-Feb-05 22:29N 44°44' E 037°48'0 0.0
2018-Feb-05 21:59N 44°44' E 037°48'0 0.0
2018-Feb-05 21:29N 44°44' E 037°48'0 0.0
2018-Feb-05 20:59N 44°44' E 037°48'0 0.0
2018-Feb-05 20:26N 44°44' E 037°48'0 0.0
2018-Feb-05 19:59N 44°44' E 037°48'0 0.0
2018-Feb-05 19:29N 44°44' E 037°48'0 0.0
2018-Feb-05 18:59N 44°44' E 037°48'0 0.0
2018-Feb-05 18:29N 44°44' E 037°48'0 0.0
2018-Feb-05 17:59N 44°44' E 037°48'0 0.0
2018-Feb-05 17:29N 44°44' E 037°48'0 0.0
2018-Feb-05 16:59N 44°44' E 037°48'0 0.0
2018-Feb-05 16:29N 44°44' E 037°48'0 0.0
2018-Feb-05 15:59N 44°44' E 037°48'0 0.0
2018-Feb-05 15:29N 44°44' E 037°48'0 0.0
2018-Feb-05 14:59N 44°44' E 037°48'0 0.0
2018-Feb-05 14:29N 44°44' E 037°48'0 0.0
2018-Feb-05 13:59N 44°44' E 037°48'0 0.0
2018-Feb-05 13:29N 44°44' E 037°48'0 0.0
2018-Feb-05 12:59N 44°44' E 037°48'0 0.0
2018-Feb-05 12:29N 44°44' E 037°48'0 0.0
2018-Feb-05 11:59N 44°44' E 037°48'0 0.0
2018-Feb-05 11:30N 44°44' E 037°48'0 0.0
2018-Feb-05 11:00N 44°44' E 037°48'0 0.0
2018-Feb-05 10:30N 44°44' E 037°48'0 0.0
2018-Feb-05 10:00N 44°44' E 037°48'0 0.0
2018-Feb-05 09:30N 44°44' E 037°48'0 0.0
2018-Feb-05 09:00N 44°44' E 037°48'2 4.5
2018-Feb-05 08:30N 44°42' E 037°50'3 5.7
2018-Feb-05 08:00N 44°39' E 037°51'2 4.1
2018-Feb-05 07:30N 44°39' E 037°54'0 0.1
2018-Feb-05 06:57N 44°39' E 037°54'0 0.0
2018-Feb-05 06:30N 44°39' E 037°54'0 0.0
2018-Feb-05 05:30N 44°39' E 037°54'0 0.0
2018-Feb-05 05:00N 44°39' E 037°54'0 0.0
2018-Feb-05 04:30N 44°39' E 037°54'0 0.0
2018-Feb-05 04:00N 44°39' E 037°54'0 0.0
2018-Feb-05 03:30N 44°39' E 037°54'0 0.0
2018-Feb-05 03:00N 44°39' E 037°54'0 0.0
2018-Feb-05 02:30N 44°39' E 037°54'0 0.0
2018-Feb-05 02:00N 44°39' E 037°54'0 0.0
2018-Feb-05 01:30N 44°39' E 037°54'0 0.1
2018-Feb-05 00:57N 44°39' E 037°54'0 0.0
2018-Feb-05 00:30N 44°39' E 037°54'0 0.0
2018-Feb-05 00:00N 44°39' E 037°54'0 0.0
2018-Feb-04 23:27N 44°39' E 037°54'0 0.0
2018-Feb-04 23:00N 44°39' E 037°54'0 0.2
2018-Feb-04 22:30N 44°39' E 037°54'0 0.1
2018-Feb-04 22:00N 44°39' E 037°54'0 0.0
2018-Feb-04 21:27N 44°39' E 037°54'0 0.0
2018-Feb-04 21:00N 44°39' E 037°54'0 0.0
2018-Feb-04 20:00N 44°39' E 037°54'0 0.1
2018-Feb-04 19:30N 44°39' E 037°54'0 0.0
2018-Feb-04 19:00N 44°39' E 037°54'0 0.0
2018-Feb-04 18:30N 44°39' E 037°54'0 0.0
2018-Feb-04 18:00N 44°39' E 037°54'0 0.0
2018-Feb-04 17:30N 44°39' E 037°54'0 0.0
2018-Feb-04 15:30N 44°39' E 037°54'0 0.1
2018-Feb-04 15:00N 44°39' E 037°54'0 0.0
2018-Feb-04 14:30N 44°39' E 037°54'0 0.0
2018-Feb-04 14:00N 44°39' E 037°54'0 0.0
2018-Feb-04 13:30N 44°39' E 037°54'0 0.0
2018-Feb-04 13:00N 44°39' E 037°54'0 0.0
2018-Feb-04 12:30N 44°39' E 037°54'0 0.0
2018-Feb-04 12:00N 44°39' E 037°54'0 0.1
2018-Feb-04 11:30N 44°39' E 037°54'0 0.0
2018-Feb-04 10:00N 44°39' E 037°54'0 0.0
2018-Feb-04 09:00N 44°39' E 037°54'0 0.0
2018-Feb-04 08:30N 44°39' E 037°54'0 0.0
2018-Feb-04 07:57N 44°39' E 037°54'0 0.0
2018-Feb-04 07:30N 44°39' E 037°54'0 0.0
2018-Feb-04 06:57N 44°39' E 037°54'0 0.0
2018-Feb-04 06:30N 44°39' E 037°54'0 0.0
2018-Feb-04 06:00N 44°39' E 037°54'0 0.0
2018-Feb-04 05:30N 44°39' E 037°54'0 0.0
2018-Feb-04 05:00N 44°39' E 037°54'0 0.0
2018-Feb-04 04:30N 44°39' E 037°54'0 0.0
2018-Feb-04 04:00N 44°39' E 037°54'0 0.0
2018-Feb-04 03:30N 44°39' E 037°54'0 0.0
2018-Feb-04 03:00N 44°39' E 037°54'0 0.0
2018-Feb-04 02:30N 44°39' E 037°54'0 0.0
2018-Feb-04 02:00N 44°39' E 037°54'0 0.0
2018-Feb-04 01:30N 44°39' E 037°54'0 0.0
2018-Feb-04 01:00N 44°39' E 037°54'0 0.0
2018-Feb-04 00:27N 44°39' E 037°54'0 0.0
2018-Feb-04 00:00N 44°39' E 037°54'0 0.0
2018-Feb-03 23:30N 44°39' E 037°54'0 0.0
2018-Feb-03 22:57N 44°39' E 037°54'0 0.0
2018-Feb-03 22:30N 44°39' E 037°54'0 0.0
2018-Feb-03 22:00N 44°39' E 037°54'0 0.0
2018-Feb-03 21:30N 44°39' E 037°54'0 0.0
2018-Feb-03 20:57N 44°39' E 037°54'0 0.0
2018-Feb-03 20:27N 44°39' E 037°54'0 0.0
2018-Feb-03 20:00N 44°39' E 037°54'0 0.0
2018-Feb-03 18:30N 44°39' E 037°54'0 0.0
2018-Feb-03 18:00N 44°39' E 037°54'0 0.0
2018-Feb-03 17:30N 44°39' E 037°54'0 0.0
2018-Feb-03 17:00N 44°39' E 037°54'0 0.0
2018-Feb-03 16:00N 44°39' E 037°54'0 0.0
2018-Feb-03 15:27N 44°39' E 037°54'0 0.0
2018-Feb-03 15:00N 44°39' E 037°54'0 0.0
2018-Feb-03 14:30N 44°39' E 037°54'0 0.0
2018-Feb-03 14:00N 44°39' E 037°54'0 0.0
2018-Feb-03 13:30N 44°39' E 037°54'0 0.0
2018-Feb-03 13:00N 44°39' E 037°54'0 0.0
2018-Feb-03 12:24N 44°39' E 037°54'0 0.0
2018-Feb-03 12:00N 44°39' E 037°54'0 0.0
2018-Feb-03 11:30N 44°39' E 037°54'0 0.0
2018-Feb-03 10:57N 44°39' E 037°54'0 0.0
2018-Feb-03 10:30N 44°39' E 037°54'0 0.0
2018-Feb-03 10:00N 44°39' E 037°54'0 0.0
2018-Feb-03 09:30N 44°39' E 037°54'0 0.0
2018-Feb-03 09:00N 44°39' E 037°54'0 0.0
2018-Feb-03 08:30N 44°39' E 037°54'0 0.0
2018-Feb-03 08:00N 44°39' E 037°54'0 0.0
2018-Feb-03 06:30N 44°39' E 037°54'0 0.0
2018-Feb-03 06:00N 44°39' E 037°54'0 0.0
2018-Feb-03 05:30N 44°39' E 037°54'0 0.0
2018-Feb-03 04:57N 44°39' E 037°54'0 0.0
2018-Feb-03 03:57N 44°39' E 037°54'0 0.1
2018-Feb-03 03:30N 44°39' E 037°54'0 0.0
2018-Feb-03 02:00N 44°39' E 037°54'0 0.0
2018-Feb-03 01:30N 44°39' E 037°54'0 0.0
2018-Feb-03 01:00N 44°39' E 037°54'  
Track history (hours):
 
Tides and Currents Weather Stations Pressure Air Temp Water Temp Dewpoint Dewpoint Depression Visibility Wind Speed Wind Dir Waves Ship Positions

Envar

Last reported at 2018-Feb-13 00:50 UTC. Time now 2018-Feb-19 18:16 UTC.
Position N 45°31' E 036°46'.

Length 99 m; draft 3.4 m.

Type: Cargo ship. MMSI: 370274000.

Date/timePositionNaut miles runAvg speedWind from/ knotsBaromVisibWave heightAir tempDewpointWater temp
2018-Feb-13 00:50N 45°31' E 036°46'3 7.7
2018-Feb-13 00:30N 45°29' E 036°44'4 7.2
2018-Feb-12 23:59N 45°26' E 036°42'3 7.1
2018-Feb-12 23:30N 45°23' E 036°40'3 6.1
2018-Feb-12 23:00N 45°20' E 036°38'3 6.7
2018-Feb-12 22:30N 45°19' E 036°33'3 6.4
2018-Feb-12 22:00N 45°18' E 036°29'3 6.1
2018-Feb-12 21:30N 45°15' E 036°29'2 4.5
2018-Feb-12 21:00N 45°13' E 036°31'0 0.3
2018-Feb-12 20:23N 45°13' E 036°32'0 0.0
2018-Feb-12 19:53N 45°13' E 036°32'0 0.0
2018-Feb-12 19:23N 45°13' E 036°32'0 0.0
2018-Feb-12 18:53N 45°13' E 036°32'0 0.0
2018-Feb-12 18:29N 45°13' E 036°32'0 0.0
2018-Feb-12 17:53N 45°13' E 036°32'0 0.0
2018-Feb-12 17:29N 45°13' E 036°32'0 0.0
2018-Feb-12 16:59N 45°13' E 036°32'0 0.0
2018-Feb-12 16:29N 45°13' E 036°32'0 0.0
2018-Feb-12 15:11N 45°13' E 036°32'0 0.0
2018-Feb-12 14:59N 45°13' E 036°32'0 0.0
2018-Feb-12 14:29N 45°13' E 036°32'2 4.7
2018-Feb-12 14:00N 45°11' E 036°30'  
2018-Feb-06 14:22N 44°26' E 037°25'3 8.5
2018-Feb-06 13:58N 44°28' E 037°29'4 8.3
2018-Feb-06 13:30N 44°30' E 037°33'4 8.1
2018-Feb-06 12:59N 44°33' E 037°38'4 8.2
2018-Feb-06 12:30N 44°33' E 037°44'4 8.0
2018-Feb-06 12:00N 44°36' E 037°47'4 7.9
2018-Feb-06 11:30N 44°40' E 037°51'4 7.5
2018-Feb-06 11:00N 44°43' E 037°48'1 1.4
2018-Feb-06 10:29N 44°44' E 037°48'0 0.0
2018-Feb-06 09:59N 44°44' E 037°48'0 0.0
2018-Feb-06 09:26N 44°44' E 037°48'0 0.0
2018-Feb-06 08:59N 44°44' E 037°48'0 0.0
2018-Feb-06 08:29N 44°44' E 037°48'0 0.0
2018-Feb-06 07:59N 44°44' E 037°48'0 0.0
2018-Feb-06 07:29N 44°44' E 037°48'0 0.0
2018-Feb-06 06:59N 44°44' E 037°48'0 0.0
2018-Feb-06 06:29N 44°44' E 037°48'0 0.0
2018-Feb-06 05:56N 44°44' E 037°48'0 0.0
2018-Feb-06 05:29N 44°44' E 037°48'0 0.0
2018-Feb-06 04:56N 44°44' E 037°48'0 0.0
2018-Feb-06 04:29N 44°44' E 037°48'0 0.0
2018-Feb-06 03:59N 44°44' E 037°48'0 0.0
2018-Feb-06 03:29N 44°44' E 037°48'0 0.0
2018-Feb-06 02:59N 44°44' E 037°48'0 0.0
2018-Feb-06 02:29N 44°44' E 037°48'0 0.0
2018-Feb-06 01:59N 44°44' E 037°48'0 0.0
2018-Feb-06 01:26N 44°44' E 037°48'0 0.0
2018-Feb-06 00:59N 44°44' E 037°48'0 0.0
2018-Feb-06 00:29N 44°44' E 037°48'0 0.0
2018-Feb-05 23:59N 44°44' E 037°48'0 0.0
2018-Feb-05 23:29N 44°44' E 037°48'0 0.0
2018-Feb-05 22:59N 44°44' E 037°48'0 0.0
2018-Feb-05 22:29N 44°44' E 037°48'0 0.0
2018-Feb-05 21:59N 44°44' E 037°48'0 0.0
2018-Feb-05 21:29N 44°44' E 037°48'0 0.0
2018-Feb-05 20:59N 44°44' E 037°48'0 0.0
2018-Feb-05 20:26N 44°44' E 037°48'0 0.0
2018-Feb-05 19:59N 44°44' E 037°48'0 0.0
2018-Feb-05 19:29N 44°44' E 037°48'0 0.0
2018-Feb-05 18:59N 44°44' E 037°48'0 0.0
2018-Feb-05 18:29N 44°44' E 037°48'0 0.0
2018-Feb-05 17:59N 44°44' E 037°48'0 0.0
2018-Feb-05 17:29N 44°44' E 037°48'0 0.0
2018-Feb-05 16:59N 44°44' E 037°48'0 0.0
2018-Feb-05 16:29N 44°44' E 037°48'0 0.0
2018-Feb-05 15:59N 44°44' E 037°48'0 0.0
2018-Feb-05 15:29N 44°44' E 037°48'0 0.0
2018-Feb-05 14:59N 44°44' E 037°48'0 0.0
2018-Feb-05 14:29N 44°44' E 037°48'0 0.0
2018-Feb-05 13:59N 44°44' E 037°48'0 0.0
2018-Feb-05 13:29N 44°44' E 037°48'0 0.0
2018-Feb-05 12:59N 44°44' E 037°48'0 0.0
2018-Feb-05 12:29N 44°44' E 037°48'0 0.0
2018-Feb-05 11:59N 44°44' E 037°48'0 0.0
2018-Feb-05 11:30N 44°44' E 037°48'0 0.0
2018-Feb-05 11:00N 44°44' E 037°48'0 0.0
2018-Feb-05 10:30N 44°44' E 037°48'0 0.0
2018-Feb-05 10:00N 44°44' E 037°48'0 0.0
2018-Feb-05 09:30N 44°44' E 037°48'0 0.0
2018-Feb-05 09:00N 44°44' E 037°48'2 4.5
2018-Feb-05 08:30N 44°42' E 037°50'3 5.7
2018-Feb-05 08:00N 44°39' E 037°51'2 4.1
2018-Feb-05 07:30N 44°39' E 037°54'0 0.1
2018-Feb-05 06:57N 44°39' E 037°54'0 0.0
2018-Feb-05 06:30N 44°39' E 037°54'0 0.0
2018-Feb-05 05:30N 44°39' E 037°54'0 0.0
2018-Feb-05 05:00N 44°39' E 037°54'0 0.0
2018-Feb-05 04:30N 44°39' E 037°54'0 0.0
2018-Feb-05 04:00N 44°39' E 037°54'0 0.0
2018-Feb-05 03:30N 44°39' E 037°54'0 0.0
2018-Feb-05 03:00N 44°39' E 037°54'0 0.0
2018-Feb-05 02:30N 44°39' E 037°54'0 0.0
2018-Feb-05 02:00N 44°39' E 037°54'0 0.0
2018-Feb-05 01:30N 44°39' E 037°54'0 0.1
2018-Feb-05 00:57N 44°39' E 037°54'0 0.0
2018-Feb-05 00:30N 44°39' E 037°54'0 0.0
2018-Feb-05 00:00N 44°39' E 037°54'0 0.0
2018-Feb-04 23:27N 44°39' E 037°54'0 0.0
2018-Feb-04 23:00N 44°39' E 037°54'0 0.2
2018-Feb-04 22:30N 44°39' E 037°54'0 0.1
2018-Feb-04 22:00N 44°39' E 037°54'0 0.0
2018-Feb-04 21:27N 44°39' E 037°54'0 0.0
2018-Feb-04 21:00N 44°39' E 037°54'0 0.0
2018-Feb-04 20:00N 44°39' E 037°54'0 0.1
2018-Feb-04 19:30N 44°39' E 037°54'0 0.0
2018-Feb-04 19:00N 44°39' E 037°54'0 0.0
2018-Feb-04 18:30N 44°39' E 037°54'0 0.0
2018-Feb-04 18:00N 44°39' E 037°54'0 0.0
2018-Feb-04 17:30N 44°39' E 037°54'0 0.0
2018-Feb-04 15:30N 44°39' E 037°54'0 0.1
2018-Feb-04 15:00N 44°39' E 037°54'0 0.0
2018-Feb-04 14:30N 44°39' E 037°54'0 0.0
2018-Feb-04 14:00N 44°39' E 037°54'0 0.0
2018-Feb-04 13:30N 44°39' E 037°54'0 0.0
2018-Feb-04 13:00N 44°39' E 037°54'0 0.0
2018-Feb-04 12:30N 44°39' E 037°54'0 0.0
2018-Feb-04 12:00N 44°39' E 037°54'0 0.1
2018-Feb-04 11:30N 44°39' E 037°54'0 0.0
2018-Feb-04 10:00N 44°39' E 037°54'0 0.0
2018-Feb-04 09:00N 44°39' E 037°54'0 0.0
2018-Feb-04 08:30N 44°39' E 037°54'0 0.0
2018-Feb-04 07:57N 44°39' E 037°54'0 0.0
2018-Feb-04 07:30N 44°39' E 037°54'0 0.0
2018-Feb-04 06:57N 44°39' E 037°54'0 0.0
2018-Feb-04 06:30N 44°39' E 037°54'0 0.0
2018-Feb-04 06:00N 44°39' E 037°54'0 0.0
2018-Feb-04 05:30N 44°39' E 037°54'0 0.0
2018-Feb-04 05:00N 44°39' E 037°54'0 0.0
2018-Feb-04 04:30N 44°39' E 037°54'0 0.0
2018-Feb-04 04:00N 44°39' E 037°54'0 0.0
2018-Feb-04 03:30N 44°39' E 037°54'0 0.0
2018-Feb-04 03:00N 44°39' E 037°54'0 0.0
2018-Feb-04 02:30N 44°39' E 037°54'0 0.0
2018-Feb-04 02:00N 44°39' E 037°54'0 0.0
2018-Feb-04 01:30N 44°39' E 037°54'0 0.0
2018-Feb-04 01:00N 44°39' E 037°54'0 0.0
2018-Feb-04 00:27N 44°39' E 037°54'0 0.0
2018-Feb-04 00:00N 44°39' E 037°54'0 0.0
2018-Feb-03 23:30N 44°39' E 037°54'0 0.0
2018-Feb-03 22:57N 44°39' E 037°54'0 0.0
2018-Feb-03 22:30N 44°39' E 037°54'0 0.0
2018-Feb-03 22:00N 44°39' E 037°54'0 0.0
2018-Feb-03 21:30N 44°39' E 037°54'0 0.0
2018-Feb-03 20:57N 44°39' E 037°54'0 0.0
2018-Feb-03 20:27N 44°39' E 037°54'0 0.0
2018-Feb-03 20:00N 44°39' E 037°54'0 0.0
2018-Feb-03 18:30N 44°39' E 037°54'0 0.0
2018-Feb-03 18:00N 44°39' E 037°54'0 0.0
2018-Feb-03 17:30N 44°39' E 037°54'0 0.0
2018-Feb-03 17:00N 44°39' E 037°54'0 0.0
2018-Feb-03 16:00N 44°39' E 037°54'0 0.0
2018-Feb-03 15:27N 44°39' E 037°54'0 0.0
2018-Feb-03 15:00N 44°39' E 037°54'0 0.0
2018-Feb-03 14:30N 44°39' E 037°54'0 0.0
2018-Feb-03 14:00N 44°39' E 037°54'0 0.0
2018-Feb-03 13:30N 44°39' E 037°54'0 0.0
2018-Feb-03 13:00N 44°39' E 037°54'0 0.0
2018-Feb-03 12:24N 44°39' E 037°54'0 0.0
2018-Feb-03 12:00N 44°39' E 037°54'0 0.0
2018-Feb-03 11:30N 44°39' E 037°54'0 0.0
2018-Feb-03 10:57N 44°39' E 037°54'0 0.0
2018-Feb-03 10:30N 44°39' E 037°54'0 0.0
2018-Feb-03 10:00N 44°39' E 037°54'0 0.0
2018-Feb-03 09:30N 44°39' E 037°54'0 0.0
2018-Feb-03 09:00N 44°39' E 037°54'0 0.0
2018-Feb-03 08:30N 44°39' E 037°54'0 0.0
2018-Feb-03 08:00N 44°39' E 037°54'0 0.0
2018-Feb-03 06:30N 44°39' E 037°54'0 0.0
2018-Feb-03 06:00N 44°39' E 037°54'0 0.0
2018-Feb-03 05:30N 44°39' E 037°54'0 0.0
2018-Feb-03 04:57N 44°39' E 037°54'0 0.0
2018-Feb-03 03:57N 44°39' E 037°54'0 0.1
2018-Feb-03 03:30N 44°39' E 037°54'0 0.0
2018-Feb-03 02:00N 44°39' E 037°54'0 0.0
2018-Feb-03 01:30N 44°39' E 037°54'0 0.0
2018-Feb-03 01:00N 44°39' E 037°54'  

Dump ship's entire track history